Time,TemperatureF,DewpointF,PressureIn,WindDirection,WindDirectionDegrees,WindSpeedMPH,WindSpeedGustMPH,Humidity,HourlyPrecipIn,Conditions,Clouds,dailyrainin,SoftwareType,DateUTC
2013-07-14 00:00:00,78.5,74.6,30.10,South,189,6.0,7.0,88,0.00,,,0.00,Wunderground v.1.15,2013-07-14 04:00:00,
2013-07-14 00:05:00,78.6,74.4,30.10,SSE,163,4.0,7.0,87,0.00,,,0.00,Wunderground v.1.15,2013-07-14 04:05:00,
2013-07-14 00:10:00,78.7,73.8,30.10,SSE,168,3.0,4.0,85,0.00,,,0.00,Wunderground v.1.15,2013-07-14 04:10:00,
2013-07-14 00:15:00,78.9,74.0,30.10,SSE,163,4.0,7.0,85,0.00,,,0.00,Wunderground v.1.15,2013-07-14 04:15:00,
2013-07-14 00:20:00,79.0,74.5,30.11,South,170,5.0,6.0,86,0.00,,,0.00,Wunderground v.1.15,2013-07-14 04:20:00,
2013-07-14 00:25:00,78.9,74.0,30.11,South,188,3.0,6.0,85,0.00,,,0.00,Wunderground v.1.15,2013-07-14 04:25:00,
2013-07-14 00:35:00,79.1,73.8,30.11,SSE,168,3.0,5.0,84,0.00,,,0.00,Wunderground v.1.15,2013-07-14 04:35:00,
2013-07-14 00:45:00,79.2,74.3,30.11,SSW,194,0.0,1.0,85,0.00,,,0.00,Wunderground v.1.15,2013-07-14 04:45:00,
2013-07-14 00:55:00,79.3,74.4,30.11,SSE,164,0.0,0.0,85,0.00,,,0.00,Wunderground v.1.15,2013-07-14 04:55:00,
2013-07-14 01:05:00,79.3,74.4,30.11,SSE,151,0.0,0.0,85,0.00,,,0.00,Wunderground v.1.15,2013-07-14 05:05:00,
2013-07-14 01:15:00,79.3,74.7,30.11,SE,146,0.0,0.0,86,0.00,,,0.00,Wunderground v.1.15,2013-07-14 05:15:00,
2013-07-14 01:20:00,79.3,75.1,30.11,SSE,152,0.0,0.0,87,0.00,,,0.00,Wunderground v.1.15,2013-07-14 05:20:00,
2013-07-14 01:30:00,79.7,75.1,30.11,SE,141,0.0,8.0,86,0.00,,,0.00,Wunderground v.1.15,2013-07-14 05:30:00,
2013-07-14 01:35:00,79.8,74.9,30.11,SE,134,5.0,9.0,85,0.00,,,0.00,Wunderground v.1.15,2013-07-14 05:35:00,
2013-07-14 01:40:00,80.0,75.1,30.11,SSE,150,10.0,13.0,85,0.00,,,0.00,Wunderground v.1.15,2013-07-14 05:40:00,
2013-07-14 01:50:00,80.0,75.1,30.10,SE,129,13.0,13.0,85,0.00,,,0.00,Wunderground v.1.15,2013-07-14 05:50:00,
2013-07-14 01:55:00,80.0,75.1,30.11,SE,132,13.0,13.0,85,0.00,,,0.00,Wunderground v.1.15,2013-07-14 05:55:00,
2013-07-14 02:05:00,80.0,75.1,30.10,SE,126,13.0,16.0,85,0.00,,,0.00,Wunderground v.1.15,2013-07-14 06:05:00,
2013-07-14 02:10:00,80.0,75.4,30.11,ESE,122,12.0,14.0,86,0.00,,,0.00,Wunderground v.1.15,2013-07-14 06:10:00,
2013-07-14 02:20:00,80.0,75.1,30.11,SE,136,13.0,14.0,85,0.00,,,0.00,Wunderground v.1.15,2013-07-14 06:20:00,
2013-07-14 02:25:00,80.1,75.5,30.11,SE,134,12.0,14.0,86,0.00,,,0.00,Wunderground v.1.15,2013-07-14 06:25:00,
2013-07-14 02:35:00,80.0,75.4,30.12,SE,136,12.0,14.0,86,0.00,,,0.00,Wunderground v.1.15,2013-07-14 06:35:00,
2013-07-14 02:40:00,80.0,75.4,30.12,SE,132,12.0,12.0,86,0.00,,,0.00,Wunderground v.1.15,2013-07-14 06:40:00,
2013-07-14 02:50:00,80.0,75.4,30.12,SE,141,13.0,13.0,86,0.00,,,0.00,Wunderground v.1.15,2013-07-14 06:50:00,
2013-07-14 02:55:00,80.0,75.4,30.12,SE,124,13.0,16.0,86,0.00,,,0.00,Wunderground v.1.15,2013-07-14 06:55:00,
2013-07-14 03:00:00,79.9,75.3,30.12,ESE,119,14.0,14.0,86,0.00,,,0.00,Wunderground v.1.15,2013-07-14 07:00:00,
2013-07-14 03:10:00,79.9,75.3,30.12,SE,140,13.0,13.0,86,0.00,,,0.00,Wunderground v.1.15,2013-07-14 07:10:00,
2013-07-14 03:20:00,79.9,75.3,30.12,SE,126,13.0,13.0,86,0.00,,,0.00,Wunderground v.1.15,2013-07-14 07:20:00,
2013-07-14 03:30:00,79.9,75.3,30.12,SE,138,11.0,11.0,86,0.00,,,0.00,Wunderground v.1.15,2013-07-14 07:30:00,
2013-07-14 03:40:00,79.9,75.7,30.12,SE,143,9.0,9.0,87,0.00,,,0.00,Wunderground v.1.15,2013-07-14 07:40:00,
2013-07-14 03:50:00,79.9,75.7,30.11,ESE,118,11.0,11.0,87,0.00,,,0.00,Wunderground v.1.15,2013-07-14 07:50:00,
2013-07-14 04:00:00,79.9,76.0,30.12,SSE,147,11.0,17.0,88,0.00,,,0.00,Wunderground v.1.15,2013-07-14 08:00:00,
2013-07-14 04:10:00,79.9,75.7,30.12,SE,136,12.0,15.0,87,0.00,,,0.00,Wunderground v.1.15,2013-07-14 08:10:00,
2013-07-14 04:20:00,79.9,75.7,30.13,East,91,12.0,12.0,87,0.00,,,0.00,Wunderground v.1.15,2013-07-14 08:20:00,
2013-07-14 04:25:00,79.9,75.7,30.13,SE,128,12.0,16.0,87,0.00,,,0.00,Wunderground v.1.15,2013-07-14 08:25:00,
2013-07-14 04:30:00,80.0,75.8,30.13,SE,137,12.0,12.0,87,0.00,,,0.00,Wunderground v.1.15,2013-07-14 08:30:00,
2013-07-14 04:40:00,80.0,75.8,30.12,ENE,68,11.0,11.0,87,0.00,,,0.00,Wunderground v.1.15,2013-07-14 08:40:00,
2013-07-14 04:50:00,80.0,76.1,30.13,SE,128,12.0,12.0,88,0.00,,,0.00,Wunderground v.1.15,2013-07-14 08:50:00,
2013-07-14 05:00:00,80.1,76.2,30.13,SE,138,11.0,14.0,88,0.00,,,0.00,Wunderground v.1.15,2013-07-14 09:00:00,
2013-07-14 05:10:00,77.1,72.6,30.14,SSE,161,9.0,9.0,86,0.00,,,0.00,Wunderground v.1.15,2013-07-14 09:10:00,
2013-07-14 05:20:00,76.5,73.0,30.14,SSE,147,9.0,9.0,89,0.00,,,0.00,Wunderground v.1.15,2013-07-14 09:20:00,
2013-07-14 05:30:00,76.0,73.2,30.15,SSE,148,10.0,14.0,91,0.00,,,0.01,Wunderground v.1.15,2013-07-14 09:30:00,
2013-07-14 05:35:00,76.1,73.3,30.15,SSE,161,12.0,14.0,91,0.00,,,0.01,Wunderground v.1.15,2013-07-14 09:35:00,
2013-07-14 05:45:00,74.9,72.1,30.14,SSE,163,11.0,13.0,91,0.05,,,0.02,Wunderground v.1.15,2013-07-14 09:45:00,
2013-07-14 05:55:00,75.8,72.0,30.14,SE,130,2.0,6.0,88,0.00,,,0.02,Wunderground v.1.15,2013-07-14 09:55:00,
2013-07-14 06:00:00,76.8,72.3,30.14,SE,126,2.0,13.0,86,0.00,,,0.02,Wunderground v.1.15,2013-07-14 10:00:00,
2013-07-14 06:10:00,78.0,73.1,30.14,SE,132,12.0,14.0,85,0.00,,,0.02,Wunderground v.1.15,2013-07-14 10:10:00,
2013-07-14 06:20:00,78.0,73.5,30.14,SE,129,10.0,10.0,86,0.00,,,0.02,Wunderground v.1.15,2013-07-14 10:20:00,
2013-07-14 06:30:00,78.1,73.6,30.14,SE,131,10.0,12.0,86,0.00,,,0.02,Wunderground v.1.15,2013-07-14 10:30:00,
2013-07-14 06:35:00,78.3,73.8,30.14,SE,132,9.0,12.0,86,0.00,,,0.02,Wunderground v.1.15,2013-07-14 10:35:00,
2013-07-14 06:45:00,78.6,74.4,30.15,ENE,74,8.0,11.0,87,0.00,,,0.02,Wunderground v.1.15,2013-07-14 10:45:00,
2013-07-14 06:50:00,78.6,74.4,30.15,ESE,123,7.0,8.0,87,0.00,,,0.02,Wunderground v.1.15,2013-07-14 10:50:00,
2013-07-14 07:00:00,78.7,74.5,30.15,ESE,113,11.0,14.0,87,0.00,,,0.02,Wunderground v.1.15,2013-07-14 11:00:00,
2013-07-14 07:05:00,78.7,74.5,30.16,SE,132,11.0,14.0,87,0.00,,,0.02,Wunderground v.1.15,2013-07-14 11:05:00,
2013-07-14 07:15:00,78.9,74.7,30.16,ESE,115,7.0,11.0,87,0.00,,,0.02,Wunderground v.1.15,2013-07-14 11:15:00,
2013-07-14 07:25:00,79.2,75.3,30.16,SE,135,6.0,15.0,88,0.00,,,0.02,Wunderground v.1.15,2013-07-14 11:25:00,
2013-07-14 07:35:00,79.3,75.1,30.16,ESE,102,2.0,3.0,87,0.00,,,0.02,Wunderground v.1.15,2013-07-14 11:35:00,
2013-07-14 07:40:00,79.5,75.3,30.16,ESE,117,4.0,7.0,87,0.00,,,0.02,Wunderground v.1.15,2013-07-14 11:40:00,
2013-07-14 07:50:00,79.8,75.9,30.16,NE,40,4.0,4.0,88,0.00,,,0.02,Wunderground v.1.15,2013-07-14 11:50:00,
2013-07-14 07:55:00,79.8,75.6,30.17,ESE,115,2.0,4.0,87,0.00,,,0.02,Wunderground v.1.15,2013-07-14 11:55:00,
2013-07-14 08:05:00,80.0,76.1,30.16,East,96,2.0,2.0,88,0.00,,,0.02,Wunderground v.1.15,2013-07-14 12:05:00,
2013-07-14 08:15:00,80.0,76.1,30.17,ENE,62,3.0,3.0,88,0.00,,,0.02,Wunderground v.1.15,2013-07-14 12:15:00,
2013-07-14 08:25:00,80.4,76.5,30.17,SE,125,3.0,3.0,88,0.00,,,0.02,Wunderground v.1.15,2013-07-14 12:25:00,
2013-07-14 08:35:00,80.6,76.4,30.17,SE,138,4.0,7.0,87,0.00,,,0.02,Wunderground v.1.15,2013-07-14 12:35:00,
2013-07-14 08:45:00,80.8,76.2,30.17,ESE,104,3.0,4.0,86,0.00,,,0.02,Wunderground v.1.15,2013-07-14 12:45:00,
2013-07-14 08:55:00,80.9,76.3,30.17,NE,36,1.0,2.0,86,0.00,,,0.02,Wunderground v.1.15,2013-07-14 12:55:00,
2013-07-14 09:05:00,81.1,76.5,30.18,ESE,103,3.0,7.0,86,0.00,,,0.02,Wunderground v.1.15,2013-07-14 13:05:00,
2013-07-14 09:15:00,81.1,76.5,30.18,ESE,122,2.0,5.0,86,0.00,,,0.02,Wunderground v.1.15,2013-07-14 13:15:00,
2013-07-14 09:20:00,81.2,77.0,30.18,SE,124,1.0,1.0,87,0.00,,,0.02,Wunderground v.1.15,2013-07-14 13:20:00,
2013-07-14 09:30:00,81.1,76.5,30.18,East,98,1.0,1.0,86,0.00,,,0.02,Wunderground v.1.15,2013-07-14 13:30:00,
2013-07-14 09:40:00,81.2,76.3,30.18,ENE,71,1.0,1.0,85,0.00,,,0.02,Wunderground v.1.15,2013-07-14 13:40:00,
2013-07-14 09:45:00,81.2,76.3,30.18,ESE,115,1.0,3.0,85,0.00,,,0.02,Wunderground v.1.15,2013-07-14 13:45:00,
2013-07-14 09:55:00,81.4,76.5,30.19,ESE,118,1.0,4.0,85,0.00,,,0.02,Wunderground v.1.15,2013-07-14 13:55:00,
2013-07-14 10:05:00,81.3,76.0,30.19,NE,37,4.0,6.0,84,0.00,,,0.02,Wunderground v.1.15,2013-07-14 14:05:00,
2013-07-14 10:15:00,81.6,76.6,30.19,ESE,115,3.0,10.0,85,0.00,,,0.02,Wunderground v.1.15,2013-07-14 14:15:00,
2013-07-14 10:20:00,81.6,76.3,30.19,ENE,73,1.0,1.0,84,0.00,,,0.02,Wunderground v.1.15,2013-07-14 14:20:00,
2013-07-14 10:30:00,81.7,76.4,30.20,NNE,19,1.0,1.0,84,0.00,,,0.02,Wunderground v.1.15,2013-07-14 14:30:00,
2013-07-14 10:40:00,81.7,76.4,30.20,ENE,59,0.0,0.0,84,0.00,,,0.02,Wunderground v.1.15,2013-07-14 14:40:00,
2013-07-14 10:45:00,81.8,76.1,30.20,NNW,334,1.0,1.0,83,0.00,,,0.02,Wunderground v.1.15,2013-07-14 14:45:00,
2013-07-14 10:55:00,81.9,76.2,30.21,SSE,164,0.0,0.0,83,0.00,,,0.02,Wunderground v.1.15,2013-07-14 14:55:00,
2013-07-14 11:05:00,82.2,76.2,30.21,ENE,63,0.0,0.0,82,0.00,,,0.02,Wunderground v.1.15,2013-07-14 15:05:00,
2013-07-14 11:10:00,82.1,76.1,30.21,East,96,0.0,0.0,82,0.00,,,0.02,Wunderground v.1.15,2013-07-14 15:10:00,
2013-07-14 11:20:00,82.0,76.3,30.21,East,83,0.0,0.0,83,0.00,,,0.02,Wunderground v.1.15,2013-07-14 15:20:00,
2013-07-14 11:25:00,82.2,76.5,30.21,ESE,115,0.0,0.0,83,0.00,,,0.02,Wunderground v.1.15,2013-07-14 15:25:00,
2013-07-14 11:35:00,82.1,76.1,30.22,NE,36,0.0,0.0,82,0.00,,,0.02,Wunderground v.1.15,2013-07-14 15:35:00,
2013-07-14 11:45:00,82.3,76.6,30.22,ESE,105,0.0,0.0,83,0.00,,,0.02,Wunderground v.1.15,2013-07-14 15:45:00,
2013-07-14 11:50:00,82.2,76.9,30.22,NE,39,0.0,0.0,84,0.00,,,0.02,Wunderground v.1.15,2013-07-14 15:50:00,
2013-07-14 12:00:00,82.2,76.5,30.22,North,350,0.0,0.0,83,0.00,,,0.02,Wunderground v.1.15,2013-07-14 16:00:00,
2013-07-14 12:05:00,82.2,76.9,30.22,ESE,115,0.0,0.0,84,0.00,,,0.02,Wunderground v.1.15,2013-07-14 16:05:00,
2013-07-14 12:15:00,82.3,77.0,30.22,SE,130,0.0,0.0,84,0.00,,,0.02,Wunderground v.1.15,2013-07-14 16:15:00,
2013-07-14 12:25:00,82.5,77.2,30.22,East,91,0.0,0.0,84,0.00,,,0.02,Wunderground v.1.15,2013-07-14 16:25:00,
2013-07-14 12:35:00,82.5,77.2,30.22,East,98,0.0,0.0,84,0.00,,,0.02,Wunderground v.1.15,2013-07-14 16:35:00,
2013-07-14 12:40:00,82.7,77.4,30.23,East,85,0.0,0.0,84,0.00,,,0.02,Wunderground v.1.15,2013-07-14 16:40:00,
2013-07-14 12:50:00,82.7,77.0,30.23,East,82,0.0,0.0,83,0.00,,,0.02,Wunderground v.1.15,2013-07-14 16:50:00,
2013-07-14 12:55:00,83.3,77.2,30.23,NE,44,0.0,0.0,82,0.00,,,0.02,Wunderground v.1.15,2013-07-14 16:55:00,
2013-07-14 13:05:00,83.5,77.1,30.23,SE,131,0.0,0.0,81,0.00,,,0.02,Wunderground v.1.15,2013-07-14 17:05:00,
2013-07-14 13:10:00,83.8,77.7,30.23,NNW,340,0.0,1.0,82,0.00,,,0.02,Wunderground v.1.15,2013-07-14 17:10:00,
2013-07-14 13:20:00,83.8,77.3,30.23,East,91,0.0,0.0,81,0.00,,,0.02,Wunderground v.1.15,2013-07-14 17:20:00,
2013-07-14 13:30:00,83.2,77.1,30.23,ESE,105,0.0,0.0,82,0.00,,,0.02,Wunderground v.1.15,2013-07-14 17:30:00,
2013-07-14 13:40:00,83.1,77.0,30.22,ESE,117,1.0,1.0,82,0.00,,,0.02,Wunderground v.1.15,2013-07-14 17:40:00,
2013-07-14 13:50:00,83.0,76.9,30.22,East,80,0.0,0.0,82,0.00,,,0.02,Wunderground v.1.15,2013-07-14 17:50:00,
2013-07-14 14:00:00,83.0,77.3,30.22,ESE,107,0.0,0.0,83,0.00,,,0.02,Wunderground v.1.15,2013-07-14 18:00:00,
2013-07-14 14:10:00,82.8,77.1,30.22,NNE,19,0.0,0.0,83,0.00,,,0.02,Wunderground v.1.15,2013-07-14 18:10:00,
2013-07-14 14:15:00,83.1,77.4,30.22,North,360,0.0,0.0,83,0.00,,,0.02,Wunderground v.1.15,2013-07-14 18:15:00,
2013-07-14 14:25:00,83.4,77.7,30.22,East,98,0.0,0.0,83,0.00,,,0.02,Wunderground v.1.15,2013-07-14 18:25:00,
2013-07-14 14:35:00,83.5,78.2,30.22,NE,55,0.0,0.0,84,0.00,,,0.02,Wunderground v.1.15,2013-07-14 18:35:00,
2013-07-14 14:45:00,84.0,77.5,30.21,NNE,33,0.0,0.0,81,0.00,,,0.02,Wunderground v.1.15,2013-07-14 18:45:00,
2013-07-14 14:55:00,83.7,77.2,30.21,NE,42,0.0,0.0,81,0.00,,,0.02,Wunderground v.1.15,2013-07-14 18:55:00,
2013-07-14 15:00:00,83.8,78.1,30.21,North,5,0.0,0.0,83,0.00,,,0.02,Wunderground v.1.15,2013-07-14 19:00:00,
2013-07-14 15:10:00,84.3,77.8,30.21,NNE,19,0.0,1.0,81,0.00,,,0.02,Wunderground v.1.15,2013-07-14 19:10:00,
2013-07-14 15:20:00,84.5,78.0,30.21,North,355,0.0,0.0,81,0.00,,,0.02,Wunderground v.1.15,2013-07-14 19:20:00,
2013-07-14 15:30:00,84.4,77.6,30.20,East,83,1.0,1.0,80,0.00,,,0.02,Wunderground v.1.15,2013-07-14 19:30:00,
2013-07-14 15:35:00,84.6,78.1,30.20,NNE,25,0.0,1.0,81,0.00,,,0.02,Wunderground v.1.15,2013-07-14 19:35:00,
2013-07-14 15:45:00,84.7,78.2,30.20,North,355,0.0,1.0,81,0.00,,,0.02,Wunderground v.1.15,2013-07-14 19:45:00,
2013-07-14 15:50:00,84.8,77.9,30.20,North,5,0.0,0.0,80,0.00,,,0.02,Wunderground v.1.15,2013-07-14 19:50:00,
2013-07-14 16:00:00,84.7,77.8,30.20,North,360,0.0,0.0,80,0.00,,,0.02,Wunderground v.1.15,2013-07-14 20:00:00,
2013-07-14 16:05:00,84.9,78.0,30.20,NE,37,0.0,0.0,80,0.00,,,0.02,Wunderground v.1.15,2013-07-14 20:05:00,
2013-07-14 16:15:00,84.7,78.2,30.19,NNW,348,0.0,0.0,81,0.00,,,0.02,Wunderground v.1.15,2013-07-14 20:15:00,
2013-07-14 16:25:00,84.5,77.6,30.20,ENE,67,0.0,0.0,80,0.00,,,0.02,Wunderground v.1.15,2013-07-14 20:25:00,
2013-07-14 16:35:00,84.2,77.4,30.19,ESE,103,0.0,0.0,80,0.00,,,0.02,Wunderground v.1.15,2013-07-14 20:35:00,
2013-07-14 16:45:00,83.9,77.1,30.20,SSE,161,1.0,2.0,80,0.00,,,0.02,Wunderground v.1.15,2013-07-14 20:45:00,
2013-07-14 16:55:00,83.7,76.9,30.19,ESE,109,2.0,2.0,80,0.00,,,0.02,Wunderground v.1.15,2013-07-14 20:55:00,
2013-07-14 17:00:00,83.9,77.4,30.19,ENE,72,2.0,2.0,81,0.00,,,0.02,Wunderground v.1.15,2013-07-14 21:00:00,
2013-07-14 17:10:00,83.8,77.7,30.19,SSE,158,1.0,1.0,82,0.00,,,0.02,Wunderground v.1.15,2013-07-14 21:10:00,
2013-07-14 17:20:00,83.5,77.4,30.19,East,97,0.0,0.0,82,0.00,,,0.02,Wunderground v.1.15,2013-07-14 21:20:00,
2013-07-14 17:25:00,83.5,77.4,30.19,ESE,104,0.0,0.0,82,0.00,,,0.02,Wunderground v.1.15,2013-07-14 21:25:00,
2013-07-14 17:35:00,83.6,77.1,30.19,ENE,64,1.0,1.0,81,0.00,,,0.02,Wunderground v.1.15,2013-07-14 21:35:00,
2013-07-14 17:45:00,83.9,77.1,30.18,NNE,22,1.0,1.0,80,0.00,,,0.02,Wunderground v.1.15,2013-07-14 21:45:00,
2013-07-14 17:55:00,84.0,77.5,30.19,East,92,1.0,1.0,81,0.00,,,0.02,Wunderground v.1.15,2013-07-14 21:55:00,
2013-07-14 18:05:00,84.0,76.8,30.18,East,97,0.0,1.0,79,0.00,,,0.02,Wunderground v.1.15,2013-07-14 22:05:00,
2013-07-14 18:10:00,84.1,76.9,30.18,East,101,0.0,0.0,79,0.00,,,0.02,Wunderground v.1.15,2013-07-14 22:10:00,
2013-07-14 18:20:00,83.9,77.8,30.18,East,84,1.0,7.0,82,0.00,,,0.02,Wunderground v.1.15,2013-07-14 22:20:00,
2013-07-14 18:25:00,83.7,77.6,30.18,NW,325,1.0,7.0,82,0.00,,,0.02,Wunderground v.1.15,2013-07-14 22:25:00,
2013-07-14 18:35:00,83.4,77.0,30.19,NE,55,1.0,1.0,81,0.00,,,0.02,Wunderground v.1.15,2013-07-14 22:35:00,
2013-07-14 18:40:00,83.2,77.1,30.19,East,98,2.0,2.0,82,0.00,,,0.02,Wunderground v.1.15,2013-07-14 22:40:00,
2013-07-14 18:50:00,83.0,77.3,30.19,NE,45,0.0,5.0,83,0.00,,,0.02,Wunderground v.1.15,2013-07-14 22:50:00,
2013-07-14 19:00:00,82.6,76.9,30.19,NNE,32,1.0,1.0,83,0.00,,,0.02,Wunderground v.1.15,2013-07-14 23:00:00,
2013-07-14 19:05:00,82.6,76.9,30.19,East,101,0.0,1.0,83,0.00,,,0.02,Wunderground v.1.15,2013-07-14 23:05:00,
2013-07-14 19:10:00,82.8,77.5,30.19,South,173,0.0,1.0,84,0.00,,,0.02,Wunderground v.1.15,2013-07-14 23:10:00,
2013-07-14 19:20:00,83.1,77.8,30.19,ENE,78,0.0,0.0,84,0.00,,,0.02,Wunderground v.1.15,2013-07-14 23:20:00,
2013-07-14 19:25:00,83.2,77.9,30.19,ESE,114,0.0,0.0,84,0.00,,,0.02,Wunderground v.1.15,2013-07-14 23:25:00,
2013-07-14 19:35:00,83.1,77.4,30.19,East,86,0.0,0.0,83,0.00,,,0.02,Wunderground v.1.15,2013-07-14 23:35:00,
2013-07-14 19:45:00,82.6,76.9,30.19,North,360,0.0,0.0,83,0.00,,,0.02,Wunderground v.1.15,2013-07-14 23:45:00,
2013-07-14 19:55:00,82.2,76.9,30.19,ESE,107,0.0,0.0,84,0.00,,,0.02,Wunderground v.1.15,2013-07-14 23:55:00,
2013-07-14 20:00:00,82.1,76.8,30.19,East,93,0.0,0.0,84,0.00,,,0.02,Wunderground v.1.15,2013-07-15 00:00:00,
2013-07-14 20:10:00,81.9,76.9,30.19,East,92,0.0,0.0,85,0.00,,,0.02,Wunderground v.1.15,2013-07-15 00:10:00,
2013-07-14 20:15:00,81.7,76.7,30.19,NE,51,0.0,0.0,85,0.00,,,0.02,Wunderground v.1.15,2013-07-15 00:15:00,
2013-07-14 20:25:00,81.5,76.6,30.19,ESE,103,0.0,0.0,85,0.00,,,0.02,Wunderground v.1.15,2013-07-15 00:25:00,
2013-07-14 20:30:00,81.4,76.5,30.19,NE,55,0.0,0.0,85,0.00,,,0.02,Wunderground v.1.15,2013-07-15 00:30:00,
2013-07-14 20:40:00,81.4,76.5,30.19,NE,52,0.0,0.0,85,0.00,,,0.02,Wunderground v.1.15,2013-07-15 00:40:00,
2013-07-14 20:50:00,81.3,76.7,30.19,NNE,30,0.0,0.0,86,0.00,,,0.02,Wunderground v.1.15,2013-07-15 00:50:00,
2013-07-14 20:55:00,81.3,76.7,30.19,NE,40,0.0,0.0,86,0.00,,,0.02,Wunderground v.1.15,2013-07-15 00:55:00,
2013-07-14 21:05:00,81.3,76.7,30.19,NE,44,0.0,1.0,86,0.00,,,0.02,Wunderground v.1.15,2013-07-15 01:05:00,
2013-07-14 21:10:00,81.2,77.0,30.20,NE,42,0.0,0.0,87,0.00,,,0.02,Wunderground v.1.15,2013-07-15 01:10:00,
2013-07-14 21:20:00,81.2,77.0,30.20,NW,325,0.0,0.0,87,0.00,,,0.02,Wunderground v.1.15,2013-07-15 01:20:00,
2013-07-14 21:30:00,81.2,77.0,30.21,North,9,0.0,0.0,87,0.00,,,0.02,Wunderground v.1.15,2013-07-15 01:30:00,
2013-07-14 21:40:00,81.1,76.9,30.21,East,96,0.0,0.0,87,0.00,,,0.02,Wunderground v.1.15,2013-07-15 01:40:00,
2013-07-14 21:45:00,81.1,76.9,30.21,NNW,347,0.0,0.0,87,0.00,,,0.02,Wunderground v.1.15,2013-07-15 01:45:00,
2013-07-14 21:55:00,81.1,76.5,30.22,NNW,340,0.0,1.0,86,0.00,,,0.02,Wunderground v.1.15,2013-07-15 01:55:00,
2013-07-14 22:00:00,81.1,76.5,30.22,NNW,338,0.0,0.0,86,0.00,,,0.02,Wunderground v.1.15,2013-07-15 02:00:00,
2013-07-14 22:10:00,81.3,76.7,30.22,NW,325,0.0,0.0,86,0.00,,,0.02,Wunderground v.1.15,2013-07-15 02:10:00,
2013-07-14 22:20:00,81.3,76.7,30.22,NNW,346,0.0,0.0,86,0.00,,,0.02,Wunderground v.1.15,2013-07-15 02:20:00,
2013-07-14 22:25:00,81.3,76.7,30.22,NW,326,0.0,1.0,86,0.00,,,0.02,Wunderground v.1.15,2013-07-15 02:25:00,
2013-07-14 22:35:00,81.4,76.8,30.22,NW,318,0.0,0.0,86,0.00,,,0.02,Wunderground v.1.15,2013-07-15 02:35:00,
2013-07-14 22:45:00,81.3,76.7,30.22,NW,322,0.0,0.0,86,0.00,,,0.02,Wunderground v.1.15,2013-07-15 02:45:00,
2013-07-14 22:50:00,81.3,77.1,30.22,North,360,1.0,1.0,87,0.00,,,0.02,Wunderground v.1.15,2013-07-15 02:50:00,
2013-07-14 23:00:00,81.3,76.7,30.22,SSW,206,1.0,1.0,86,0.00,,,0.02,Wunderground v.1.15,2013-07-15 03:00:00,
2013-07-14 23:10:00,81.2,76.6,30.22,NW,325,0.0,1.0,86,0.00,,,0.02,Wunderground v.1.15,2013-07-15 03:10:00,
2013-07-14 23:15:00,81.2,76.6,30.22,North,350,1.0,1.0,86,0.00,,,0.02,Wunderground v.1.15,2013-07-15 03:15:00,
2013-07-14 23:25:00,81.2,76.6,30.22,NE,53,0.0,1.0,86,0.00,,,0.02,Wunderground v.1.15,2013-07-15 03:25:00,
2013-07-14 23:30:00,81.2,76.6,30.22,NNE,22,0.0,0.0,86,0.00,,,0.02,Wunderground v.1.15,2013-07-15 03:30:00,
2013-07-14 23:40:00,81.2,76.6,30.22,NW,317,1.0,1.0,86,0.00,,,0.02,Wunderground v.1.15,2013-07-15 03:40:00,
2013-07-14 23:50:00,81.2,77.0,30.22,NW,310,0.0,0.0,87,0.00,,,0.02,Wunderground v.1.15,2013-07-15 03:50:00,
2013-07-14 23:55:00,81.2,77.0,30.22,WNW,295,0.0,0.0,87,0.00,,,0.02,Wunderground v.1.15,2013-07-15 03:55:00,